createdAt,value
2023-03-26T00:00:08.581Z,939.61
2023-03-26T00:00:19.546Z,939.59
2023-03-26T00:00:30.545Z,939.59
2023-03-26T00:00:41.535Z,939.58
2023-03-26T00:00:52.625Z,939.58
2023-03-26T00:01:04.567Z,939.55
2023-03-26T00:01:15.659Z,939.55
2023-03-26T00:01:27.592Z,939.56
2023-03-26T00:01:38.654Z,939.55
2023-03-26T00:01:50.619Z,939.56
2023-03-26T00:02:02.690Z,939.56
2023-03-26T00:02:13.748Z,939.58
2023-03-26T00:02:25.662Z,939.58
2023-03-26T00:02:37.582Z,939.61
2023-03-26T00:02:49.586Z,939.58
2023-03-26T00:03:00.632Z,939.55
2023-03-26T00:03:11.662Z,939.55
2023-03-26T00:03:22.589Z,939.56
2023-03-26T00:03:33.580Z,939.59
2023-03-26T00:03:44.578Z,939.59
2023-03-26T00:03:55.572Z,939.58
2023-03-26T00:04:06.592Z,939.56
2023-03-26T00:04:18.573Z,939.55
2023-03-26T00:04:29.574Z,939.55
2023-03-26T00:04:40.566Z,939.53
2023-03-26T00:04:51.548Z,939.52
2023-03-26T00:05:02.588Z,939.53
2023-03-26T00:05:13.595Z,939.53
2023-03-26T00:05:25.602Z,939.56
2023-03-26T00:05:37.603Z,939.56
2023-03-26T00:05:49.648Z,939.60
2023-03-26T00:06:00.628Z,939.60
2023-03-26T00:06:12.588Z,939.60
2023-03-26T00:06:23.600Z,939.60
2023-03-26T00:06:34.580Z,939.61
2023-03-26T00:06:45.564Z,939.64
2023-03-26T00:06:56.540Z,939.61
2023-03-26T00:07:07.624Z,939.58
2023-03-26T00:07:19.575Z,939.60
2023-03-26T00:07:30.560Z,939.63
2023-03-26T00:07:41.540Z,939.62
2023-03-26T00:07:52.627Z,939.61
2023-03-26T00:08:04.577Z,939.63
2023-03-26T00:08:15.569Z,939.64
2023-03-26T00:08:26.544Z,939.60
2023-03-26T00:08:37.542Z,939.63
2023-03-26T00:08:48.569Z,939.64
2023-03-26T00:08:59.559Z,939.64
2023-03-26T00:09:10.588Z,939.65
2023-03-26T00:09:21.612Z,939.61
2023-03-26T00:09:32.610Z,939.60
2023-03-26T00:09:44.572Z,939.59
2023-03-26T00:09:55.572Z,939.58
2023-03-26T00:10:06.560Z,939.61
2023-03-26T00:10:17.564Z,939.63
2023-03-26T00:10:28.535Z,939.62
2023-03-26T00:10:39.616Z,939.63
2023-03-26T00:10:51.564Z,939.65
2023-03-26T00:11:02.566Z,939.63
2023-03-26T00:11:13.575Z,939.61
2023-03-26T00:11:24.580Z,939.63
2023-03-26T00:11:35.585Z,939.65
2023-03-26T00:11:46.586Z,939.65
2023-03-26T00:11:57.587Z,939.66
2023-03-26T00:12:08.573Z,939.67
2023-03-26T00:12:19.578Z,939.68
2023-03-26T00:12:30.575Z,939.65
2023-03-26T00:12:41.554Z,939.64
2023-03-26T00:12:52.581Z,939.65
2023-03-26T00:13:03.579Z,939.62
2023-03-26T00:13:14.573Z,939.59
2023-03-26T00:13:25.555Z,939.58
2023-03-26T00:13:37.569Z,939.60
2023-03-26T00:13:49.564Z,939.61
2023-03-26T00:14:00.559Z,939.62
2023-03-26T00:14:11.558Z,939.62
2023-03-26T00:14:22.556Z,939.61
2023-03-26T00:14:33.554Z,939.58
2023-03-26T00:14:44.552Z,939.60
2023-03-26T00:14:55.584Z,939.62
2023-03-26T00:15:06.577Z,939.65
2023-03-26T00:15:17.558Z,939.60
2023-03-26T00:15:28.572Z,939.60
2023-03-26T00:15:39.563Z,939.62
2023-03-26T00:15:50.570Z,939.62
2023-03-26T00:16:01.558Z,939.63
2023-03-26T00:16:12.552Z,939.61
2023-03-26T00:16:23.615Z,939.61
2023-03-26T00:16:34.608Z,939.58
2023-03-26T00:16:46.618Z,939.62
2023-03-26T00:16:58.595Z,939.62
2023-03-26T00:17:09.578Z,939.62
2023-03-26T00:17:20.558Z,939.62
2023-03-26T00:17:31.551Z,939.60
2023-03-26T00:17:42.619Z,939.61
2023-03-26T00:17:53.577Z,939.66
2023-03-26T00:18:04.609Z,939.65
2023-03-26T00:18:16.564Z,939.57
2023-03-26T00:18:27.540Z,939.59
2023-03-26T00:18:38.624Z,939.63
2023-03-26T00:18:50.568Z,939.63
2023-03-26T00:19:01.553Z,939.62
2023-03-26T00:19:12.555Z,939.62
2023-03-26T00:19:23.545Z,939.62
2023-03-26T00:19:34.536Z,939.64
2023-03-26T00:19:45.529Z,939.59
2023-03-26T00:19:56.614Z,939.59
2023-03-26T00:20:08.557Z,939.63
2023-03-26T00:20:19.562Z,939.64
2023-03-26T00:20:30.540Z,939.64
2023-03-26T00:20:41.598Z,939.64
2023-03-26T00:20:52.609Z,939.66
2023-03-26T00:21:04.560Z,939.65
2023-03-26T00:21:15.545Z,939.63
2023-03-26T00:21:26.533Z,939.63
2023-03-26T00:21:37.534Z,939.62
2023-03-26T00:21:48.622Z,939.61
2023-03-26T00:22:00.602Z,939.60
2023-03-26T00:22:12.545Z,939.61
2023-03-26T00:22:23.538Z,939.63
2023-03-26T00:22:34.534Z,939.66
2023-03-26T00:22:45.617Z,939.64
2023-03-26T00:22:57.574Z,939.60
2023-03-26T00:23:08.562Z,939.60
2023-03-26T00:23:19.542Z,939.67
2023-03-26T00:23:30.572Z,939.67
2023-03-26T00:23:41.574Z,939.62
2023-03-26T00:23:52.555Z,939.61
2023-03-26T00:24:03.534Z,939.59
2023-03-26T00:24:14.621Z,939.60
2023-03-26T00:24:26.580Z,939.60
2023-03-26T00:24:37.572Z,939.60
2023-03-26T00:24:48.564Z,939.60
2023-03-26T00:24:59.553Z,939.63
2023-03-26T00:25:10.546Z,939.62
2023-03-26T00:25:21.583Z,939.59
2023-03-26T00:25:32.555Z,939.57
2023-03-26T00:25:43.536Z,939.57
2023-03-26T00:25:54.865Z,939.57
2023-03-26T00:26:05.571Z,939.60
2023-03-26T00:26:16.551Z,939.59
2023-03-26T00:26:27.531Z,939.60
2023-03-26T00:26:38.627Z,939.65
2023-03-26T00:26:50.579Z,939.65
2023-03-26T00:27:01.561Z,939.64
2023-03-26T00:27:12.546Z,939.63
2023-03-26T00:27:23.556Z,939.63
2023-03-26T00:27:34.545Z,939.61
2023-03-26T00:27:45.560Z,939.63
2023-03-26T00:27:56.557Z,939.64
2023-03-26T00:28:07.565Z,939.61
2023-03-26T00:28:18.556Z,939.62
2023-03-26T00:28:29.557Z,939.61
2023-03-26T00:28:40.718Z,939.61
2023-03-26T00:28:51.616Z,939.58
2023-03-26T00:29:03.639Z,939.60
2023-03-26T00:29:15.603Z,939.61
2023-03-26T00:29:27.577Z,939.62
2023-03-26T00:29:38.567Z,939.63
2023-03-26T00:29:49.543Z,939.60
2023-03-26T00:30:00.559Z,939.59
2023-03-26T00:30:11.646Z,939.62
2023-03-26T00:30:23.607Z,939.62
2023-03-26T00:30:35.564Z,939.62
2023-03-26T00:30:46.653Z,939.61
2023-03-26T00:30:58.622Z,939.61
2023-03-26T00:31:09.558Z,939.61
2023-03-26T00:31:20.642Z,939.61
2023-03-26T00:31:31.605Z,939.58
2023-03-26T00:31:42.584Z,939.56
2023-03-26T00:31:53.569Z,939.61
2023-03-26T00:32:04.562Z,939.66
2023-03-26T00:32:15.548Z,939.67
2023-03-26T00:32:26.585Z,939.64
2023-03-26T00:32:37.591Z,939.60
2023-03-26T00:32:53.943Z,939.62
2023-03-26T00:33:01.607Z,939.62
2023-03-26T00:33:13.590Z,939.63
2023-03-26T00:33:24.574Z,939.64
2023-03-26T00:33:35.557Z,939.63
2023-03-26T00:33:46.531Z,939.63
2023-03-26T00:33:57.560Z,939.62
2023-03-26T00:34:08.571Z,939.61
2023-03-26T00:34:19.558Z,939.61
2023-03-26T00:34:30.579Z,939.60
2023-03-26T00:34:41.555Z,939.59
2023-03-26T00:34:52.548Z,939.61
2023-03-26T00:35:03.555Z,939.61
2023-03-26T00:35:14.548Z,939.59
2023-03-26T00:35:25.565Z,939.57
2023-03-26T00:35:36.593Z,939.61
2023-03-26T00:35:48.570Z,939.63
2023-03-26T00:36:00.435Z,939.59
2023-03-26T00:36:10.603Z,939.54
2023-03-26T00:36:22.618Z,939.54
2023-03-26T00:36:34.596Z,939.57
2023-03-26T00:36:45.579Z,939.57
2023-03-26T00:36:56.562Z,939.57
2023-03-26T00:37:07.538Z,939.59
2023-03-26T00:37:18.584Z,939.60
2023-03-26T00:37:29.573Z,939.60
2023-03-26T00:37:40.569Z,939.58
2023-03-26T00:37:51.614Z,939.61
2023-03-26T00:38:02.625Z,939.64
2023-03-26T00:38:14.570Z,939.61
2023-03-26T00:38:25.557Z,939.61
2023-03-26T00:38:36.549Z,939.62
2023-03-26T00:38:47.579Z,939.62
2023-03-26T00:38:58.565Z,939.61
2023-03-26T00:39:09.550Z,939.60
2023-03-26T00:39:20.545Z,939.57
2023-03-26T00:39:31.565Z,939.57
2023-03-26T00:39:42.541Z,939.60
2023-03-26T00:39:53.581Z,939.61
2023-03-26T00:40:06.575Z,939.63
2023-03-26T00:40:17.563Z,939.66
2023-03-26T00:40:28.564Z,939.71
2023-03-26T00:40:39.545Z,939.73
2023-03-26T00:40:50.545Z,939.70
2023-03-26T00:41:01.634Z,939.53
2023-03-26T00:41:13.581Z,939.57
2023-03-26T00:41:24.559Z,939.60
2023-03-26T00:41:35.634Z,939.60
2023-03-26T00:41:47.576Z,939.61
2023-03-26T00:41:58.563Z,939.62
2023-03-26T00:42:09.549Z,939.61
2023-03-26T00:42:20.581Z,939.61
2023-03-26T00:42:32.569Z,939.64
2023-03-26T00:42:43.542Z,939.65
2023-03-26T00:42:54.540Z,939.66
2023-03-26T00:43:05.619Z,939.68
2023-03-26T00:43:17.560Z,939.69
2023-03-26T00:43:28.641Z,939.69
2023-03-26T00:43:40.596Z,939.70
2023-03-26T00:43:51.576Z,939.67
2023-03-26T00:44:02.561Z,939.67
2023-03-26T00:44:13.560Z,939.67
2023-03-26T00:44:24.541Z,939.67
2023-03-26T00:44:35.542Z,939.64
2023-03-26T00:44:46.619Z,939.62
2023-03-26T00:44:58.570Z,939.61
2023-03-26T00:45:09.575Z,939.62
2023-03-26T00:45:20.569Z,939.65
2023-03-26T00:45:31.558Z,939.67
2023-03-26T00:45:42.691Z,939.68
2023-03-26T00:45:53.747Z,939.65
2023-03-26T00:46:04.598Z,939.63
2023-03-26T00:46:15.613Z,939.68
2023-03-26T00:46:27.609Z,939.70
2023-03-26T00:46:39.689Z,939.69
2023-03-26T00:46:51.610Z,939.69
2023-03-26T00:47:03.597Z,939.70
2023-03-26T00:47:14.590Z,939.70
2023-03-26T00:47:25.607Z,939.67
2023-03-26T00:47:37.604Z,939.67
2023-03-26T00:47:49.638Z,939.69
2023-03-26T00:48:02.688Z,939.69
2023-03-26T00:48:11.584Z,939.69
2023-03-26T00:48:31.303Z,939.69
2023-03-26T00:48:44.326Z,939.69
2023-03-26T00:48:47.624Z,939.65
2023-03-26T00:48:58.760Z,939.66
2023-03-26T00:49:10.667Z,939.65
2023-03-26T00:49:22.614Z,939.63
2023-03-26T00:49:33.592Z,939.64
2023-03-26T00:49:44.577Z,939.65
2023-03-26T00:49:55.573Z,939.65
2023-03-26T00:50:06.549Z,939.66
2023-03-26T00:50:17.536Z,939.69
2023-03-26T00:50:28.555Z,939.69
2023-03-26T00:50:39.631Z,939.67
2023-03-26T00:50:51.575Z,939.62
2023-03-26T00:51:02.575Z,939.58
2023-03-26T00:51:13.568Z,939.58
2023-03-26T00:51:24.544Z,939.61
2023-03-26T00:51:35.543Z,939.61
2023-03-26T00:51:46.566Z,939.64
2023-03-26T00:51:57.557Z,939.65
2023-03-26T00:52:08.708Z,939.65
2023-03-26T00:52:20.612Z,939.65
2023-03-26T00:52:32.568Z,939.65
2023-03-26T00:52:43.555Z,939.65
2023-03-26T00:52:54.541Z,939.68
2023-03-26T00:53:05.549Z,939.71
2023-03-26T00:53:16.574Z,939.69
2023-03-26T00:53:27.594Z,939.68
2023-03-26T00:53:38.581Z,939.67
2023-03-26T00:53:49.563Z,939.67
2023-03-26T00:54:00.554Z,939.65
2023-03-26T00:54:11.542Z,939.63
2023-03-26T00:54:22.535Z,939.62
2023-03-26T00:54:33.618Z,939.60
2023-03-26T00:54:45.564Z,939.60
2023-03-26T00:54:56.542Z,939.61
2023-03-26T00:55:07.576Z,939.64
2023-03-26T00:55:19.579Z,939.66
2023-03-26T00:55:30.574Z,939.66
2023-03-26T00:55:41.580Z,939.66
2023-03-26T00:55:52.745Z,939.65
2023-03-26T00:56:04.565Z,939.63
2023-03-26T00:56:15.570Z,939.60
2023-03-26T00:56:26.582Z,939.63
2023-03-26T00:56:37.606Z,939.64
2023-03-26T00:56:49.599Z,939.62
2023-03-26T00:57:00.611Z,939.58
2023-03-26T00:57:14.923Z,939.62
2023-03-26T00:57:35.029Z,939.63
2023-03-26T00:57:36.390Z,939.65
2023-03-26T00:57:45.579Z,939.66
2023-03-26T00:57:56.556Z,939.67
2023-03-26T00:58:07.544Z,939.66
2023-03-26T00:58:18.631Z,939.65
2023-03-26T00:58:30.580Z,939.66
2023-03-26T00:58:41.571Z,939.66
2023-03-26T00:58:52.619Z,939.63
2023-03-26T00:59:04.594Z,939.62
2023-03-26T00:59:15.599Z,939.63
2023-03-26T00:59:26.598Z,939.62
2023-03-26T00:59:37.591Z,939.65
2023-03-26T00:59:48.604Z,939.67
2023-03-26T00:59:59.586Z,939.70
2023-03-26T01:00:10.582Z,939.70
2023-03-26T01:00:21.577Z,939.61
2023-03-26T01:00:32.564Z,939.61
2023-03-26T01:00:45.688Z,939.65
2023-03-26T01:00:54.546Z,939.66
2023-03-26T01:01:05.617Z,939.65
2023-03-26T01:01:17.630Z,939.65
2023-03-26T01:01:29.167Z,939.65
2023-03-26T01:01:39.693Z,939.65
2023-03-26T01:01:51.647Z,939.64
2023-03-26T01:02:03.631Z,939.63
2023-03-26T01:02:15.655Z,939.60
2023-03-26T01:02:26.625Z,939.63
2023-03-26T01:02:37.667Z,939.64
2023-03-26T01:02:48.642Z,939.66
2023-03-26T01:02:59.688Z,939.65
2023-03-26T01:03:10.652Z,939.68
2023-03-26T01:03:26.771Z,939.65
2023-03-26T01:03:34.728Z,939.60
2023-03-26T01:03:53.649Z,939.62
2023-03-26T01:04:07.326Z,939.64
2023-03-26T01:04:09.110Z,939.64
2023-03-26T01:04:18.636Z,939.64
2023-03-26T01:04:29.695Z,939.65
2023-03-26T01:04:40.702Z,939.62
2023-03-26T01:04:51.604Z,939.61
2023-03-26T01:05:03.633Z,939.64
2023-03-26T01:05:14.606Z,939.66
2023-03-26T01:05:26.609Z,939.66
2023-03-26T01:05:38.618Z,939.67
2023-03-26T01:05:50.570Z,939.69
2023-03-26T01:06:01.547Z,939.71
2023-03-26T01:06:12.552Z,939.72
2023-03-26T01:06:23.549Z,939.71
2023-03-26T01:06:34.566Z,939.72
2023-03-26T01:06:45.551Z,939.72
2023-03-26T01:06:56.564Z,939.73
2023-03-26T01:07:07.560Z,939.70
2023-03-26T01:07:18.574Z,939.67
2023-03-26T01:07:29.547Z,939.65
2023-03-26T01:07:40.537Z,939.64
2023-03-26T01:07:51.637Z,939.65
2023-03-26T01:08:03.588Z,939.63
2023-03-26T01:08:14.572Z,939.60
2023-03-26T01:08:25.581Z,939.64
2023-03-26T01:08:36.566Z,939.70
2023-03-26T01:08:47.551Z,939.73
2023-03-26T01:08:58.550Z,939.72
2023-03-26T01:09:09.541Z,939.68
2023-03-26T01:09:20.590Z,939.64
2023-03-26T01:09:31.579Z,939.64
2023-03-26T01:09:42.559Z,939.66
2023-03-26T01:09:53.555Z,939.66
2023-03-26T01:10:04.642Z,939.64
2023-03-26T01:10:16.611Z,939.64
2023-03-26T01:10:27.589Z,939.69
2023-03-26T01:10:38.591Z,939.66
2023-03-26T01:10:49.584Z,939.66
2023-03-26T01:11:00.558Z,939.62
2023-03-26T01:11:11.540Z,939.61
2023-03-26T01:11:22.547Z,939.64
2023-03-26T01:11:33.626Z,939.65
2023-03-26T01:11:45.575Z,939.62
2023-03-26T01:11:56.562Z,939.65
2023-03-26T01:12:07.569Z,939.69
2023-03-26T01:12:18.565Z,939.71
2023-03-26T01:12:29.557Z,939.69
2023-03-26T01:12:40.537Z,939.71
2023-03-26T01:12:51.569Z,939.73
2023-03-26T01:13:02.568Z,939.70
2023-03-26T01:13:13.539Z,939.65
2023-03-26T01:13:24.597Z,939.67
2023-03-26T01:13:35.581Z,939.71
2023-03-26T01:13:46.571Z,939.72
2023-03-26T01:13:57.551Z,939.70
2023-03-26T01:14:08.557Z,939.66
2023-03-26T01:14:19.558Z,939.69
2023-03-26T01:14:30.571Z,939.71
2023-03-26T01:14:41.580Z,939.72
2023-03-26T01:14:52.570Z,939.73
2023-03-26T01:15:03.557Z,939.74
2023-03-26T01:15:14.574Z,939.74
2023-03-26T01:15:25.566Z,939.73
2023-03-26T01:15:36.584Z,939.72
2023-03-26T01:15:47.621Z,939.71
2023-03-26T01:15:59.605Z,939.72
2023-03-26T01:16:10.543Z,939.72
2023-03-26T01:16:21.606Z,939.72
2023-03-26T01:16:32.553Z,939.72
2023-03-26T01:16:43.542Z,939.70
2023-03-26T01:16:54.573Z,939.66
2023-03-26T01:17:05.561Z,939.63
2023-03-26T01:17:16.553Z,939.64
2023-03-26T01:17:27.584Z,939.65
2023-03-26T01:17:38.574Z,939.63
2023-03-26T01:17:49.635Z,939.62
2023-03-26T01:18:00.608Z,939.64
2023-03-26T01:18:12.593Z,939.64
2023-03-26T01:18:23.591Z,939.65
2023-03-26T01:18:34.574Z,939.66
2023-03-26T01:18:45.563Z,939.71
2023-03-26T01:18:56.550Z,939.72
2023-03-26T01:19:07.624Z,939.69
2023-03-26T01:19:19.566Z,939.66
2023-03-26T01:19:30.585Z,939.65
2023-03-26T01:19:41.583Z,939.64
2023-03-26T01:19:52.605Z,939.62
2023-03-26T01:20:04.560Z,939.60
2023-03-26T01:20:15.547Z,939.61
2023-03-26T01:20:26.705Z,939.62
2023-03-26T01:20:38.603Z,939.64
2023-03-26T01:20:50.567Z,939.64
2023-03-26T01:21:01.544Z,939.65
2023-03-26T01:21:12.639Z,939.65
2023-03-26T01:21:24.598Z,939.64
2023-03-26T01:21:35.592Z,939.65
2023-03-26T01:21:46.595Z,939.64
2023-03-26T01:21:57.582Z,939.62
2023-03-26T01:22:08.567Z,939.68
2023-03-26T01:22:19.549Z,939.70
2023-03-26T01:22:30.551Z,939.69
2023-03-26T01:22:41.559Z,939.67
2023-03-26T01:22:52.573Z,939.66
2023-03-26T01:23:03.558Z,939.64
2023-03-26T01:23:14.548Z,939.64
2023-03-26T01:23:25.620Z,939.64
2023-03-26T01:23:37.625Z,939.65
2023-03-26T01:23:49.598Z,939.65
2023-03-26T01:24:00.586Z,939.66
2023-03-26T01:24:11.572Z,939.65
2023-03-26T01:24:22.569Z,939.66
2023-03-26T01:24:33.559Z,939.67
2023-03-26T01:24:44.560Z,939.67
2023-03-26T01:24:55.565Z,939.67
2023-03-26T01:25:06.558Z,939.66
2023-03-26T01:25:17.544Z,939.67
2023-03-26T01:25:28.540Z,939.69
2023-03-26T01:25:39.548Z,939.72
2023-03-26T01:25:50.626Z,939.73
2023-03-26T01:26:02.600Z,939.69
2023-03-26T01:26:13.582Z,939.67
2023-03-26T01:26:24.571Z,939.68
2023-03-26T01:26:35.567Z,939.69
2023-03-26T01:26:46.570Z,939.71
2023-03-26T01:26:57.560Z,939.71
2023-03-26T01:27:08.548Z,939.72
2023-03-26T01:27:19.663Z,939.74
2023-03-26T01:27:31.638Z,939.73
2023-03-26T01:27:43.602Z,939.71
2023-03-26T01:27:54.592Z,939.71
2023-03-26T01:28:05.615Z,939.72
2023-03-26T01:28:17.566Z,939.72
2023-03-26T01:28:28.547Z,939.70
2023-03-26T01:28:39.548Z,939.68
2023-03-26T01:28:50.543Z,939.68
2023-03-26T01:29:01.545Z,939.71
2023-03-26T01:29:12.540Z,939.72
2023-03-26T01:29:23.626Z,939.74
2023-03-26T01:29:35.577Z,939.73
2023-03-26T01:29:46.557Z,939.72
2023-03-26T01:29:57.548Z,939.74
2023-03-26T01:30:08.550Z,939.75
2023-03-26T01:30:19.643Z,939.73
2023-03-26T01:30:31.608Z,939.76
2023-03-26T01:30:42.607Z,939.75
2023-03-26T01:30:53.594Z,939.73
2023-03-26T01:31:04.585Z,939.73
2023-03-26T01:31:15.575Z,939.72
2023-03-26T01:31:26.575Z,939.71
2023-03-26T01:31:37.561Z,939.74
2023-03-26T01:31:48.555Z,939.75
2023-03-26T01:31:59.548Z,939.75
2023-03-26T01:32:10.649Z,939.73
2023-03-26T01:32:22.713Z,939.70
2023-03-26T01:32:33.685Z,939.69
2023-03-26T01:32:45.631Z,939.69
2023-03-26T01:32:57.739Z,939.68
2023-03-26T01:33:09.672Z,939.68
2023-03-26T01:33:21.681Z,939.69
2023-03-26T01:33:32.608Z,939.69
2023-03-26T01:33:43.818Z,939.68
2023-03-26T01:33:55.556Z,939.70
2023-03-26T01:34:06.550Z,939.73
2023-03-26T01:34:17.633Z,939.70
2023-03-26T01:34:29.584Z,939.72
2023-03-26T01:34:40.569Z,939.70
2023-03-26T01:34:51.559Z,939.70
2023-03-26T01:35:02.547Z,939.68
2023-03-26T01:35:13.535Z,939.69
2023-03-26T01:35:24.626Z,939.70
2023-03-26T01:35:36.604Z,939.69
2023-03-26T01:35:47.667Z,939.70
2023-03-26T01:35:58.757Z,939.70
2023-03-26T01:36:10.675Z,939.70
2023-03-26T01:36:22.585Z,939.69
2023-03-26T01:36:33.605Z,939.69
2023-03-26T01:36:44.592Z,939.71
2023-03-26T01:36:55.597Z,939.72
2023-03-26T01:37:06.576Z,939.75
2023-03-26T01:37:17.584Z,939.71
2023-03-26T01:37:28.566Z,939.70
2023-03-26T01:37:39.553Z,939.69
2023-03-26T01:37:50.553Z,939.69
2023-03-26T01:38:01.547Z,939.70
2023-03-26T01:38:12.547Z,939.70
2023-03-26T01:38:23.634Z,939.68
2023-03-26T01:38:35.644Z,939.67
2023-03-26T01:38:46.641Z,939.68
2023-03-26T01:38:59.327Z,939.70
2023-03-26T01:39:08.538Z,939.72
2023-03-26T01:39:19.572Z,939.67
2023-03-26T01:39:30.552Z,939.67
2023-03-26T01:39:41.549Z,939.71
2023-03-26T01:39:52.590Z,939.68
2023-03-26T01:40:03.578Z,939.68
2023-03-26T01:40:14.566Z,939.69
2023-03-26T01:40:25.557Z,939.67
2023-03-26T01:40:36.548Z,939.69
2023-03-26T01:40:47.631Z,939.69
2023-03-26T01:40:59.560Z,939.69
2023-03-26T01:41:10.550Z,939.68
2023-03-26T01:41:21.549Z,939.68
2023-03-26T01:41:32.532Z,939.69
2023-03-26T01:41:43.578Z,939.67
2023-03-26T01:41:54.572Z,939.66
2023-03-26T01:42:05.568Z,939.67
2023-03-26T01:42:16.542Z,939.70
2023-03-26T01:42:27.627Z,939.69
2023-03-26T01:42:39.576Z,939.67
2023-03-26T01:42:50.572Z,939.67
2023-03-26T01:43:01.552Z,939.66
2023-03-26T01:43:12.551Z,939.67
2023-03-26T01:43:23.536Z,939.69
2023-03-26T01:43:34.623Z,939.69
2023-03-26T01:43:46.572Z,939.69
2023-03-26T01:43:57.548Z,939.70
2023-03-26T01:44:08.631Z,939.69
2023-03-26T01:44:20.575Z,939.67
2023-03-26T01:44:31.558Z,939.67
2023-03-26T01:44:42.535Z,939.68
2023-03-26T01:44:53.621Z,939.68
2023-03-26T01:45:05.571Z,939.67
2023-03-26T01:45:16.561Z,939.67
2023-03-26T01:45:27.544Z,939.68
2023-03-26T01:45:38.533Z,939.68
2023-03-26T01:45:49.638Z,939.68
2023-03-26T01:46:01.591Z,939.67
2023-03-26T01:46:12.590Z,939.66
2023-03-26T01:46:23.641Z,939.66
2023-03-26T01:46:34.617Z,939.65
2023-03-26T01:46:45.660Z,939.64
2023-03-26T01:46:57.676Z,939.65
2023-03-26T01:47:09.533Z,939.65
2023-03-26T01:47:20.628Z,939.65
2023-03-26T01:47:31.602Z,939.67
2023-03-26T01:47:43.661Z,939.68
2023-03-26T01:47:55.580Z,939.67
2023-03-26T01:48:06.611Z,939.66
2023-03-26T01:48:17.551Z,939.67
2023-03-26T01:48:28.624Z,939.66
2023-03-26T01:48:40.566Z,939.67
2023-03-26T01:48:51.565Z,939.69
2023-03-26T01:49:02.566Z,939.69
2023-03-26T01:49:13.890Z,939.68
2023-03-26T01:49:24.595Z,939.69
2023-03-26T01:49:35.580Z,939.70
2023-03-26T01:49:46.563Z,939.71
2023-03-26T01:49:57.546Z,939.72
2023-03-26T01:50:08.599Z,939.70
2023-03-26T01:50:20.591Z,939.69
2023-03-26T01:50:32.566Z,939.71
2023-03-26T01:50:43.557Z,939.71
2023-03-26T01:50:54.533Z,939.66
2023-03-26T01:51:05.538Z,939.64
2023-03-26T01:51:16.554Z,939.65
2023-03-26T01:51:27.642Z,939.66
2023-03-26T01:51:39.593Z,939.67
2023-03-26T01:51:50.584Z,939.70
2023-03-26T01:52:01.621Z,939.72
2023-03-26T01:52:13.686Z,939.73
2023-03-26T01:52:24.571Z,939.73
2023-03-26T01:52:35.558Z,939.72
2023-03-26T01:52:46.545Z,939.75
2023-03-26T01:52:57.630Z,939.77
2023-03-26T01:53:09.589Z,939.72
2023-03-26T01:53:20.573Z,939.74
2023-03-26T01:53:31.572Z,939.75
2023-03-26T01:53:42.577Z,939.73
2023-03-26T01:53:53.591Z,939.72
2023-03-26T01:54:04.581Z,939.68
2023-03-26T01:54:15.570Z,939.67
2023-03-26T01:54:26.547Z,939.66
2023-03-26T01:54:37.621Z,939.67
2023-03-26T01:54:49.567Z,939.69
2023-03-26T01:55:00.561Z,939.69
2023-03-26T01:55:11.567Z,939.69
2023-03-26T01:55:22.583Z,939.66
2023-03-26T01:55:33.580Z,939.67
2023-03-26T01:55:44.565Z,939.70
2023-03-26T01:55:55.721Z,939.68
2023-03-26T01:56:06.561Z,939.63
2023-03-26T01:56:17.544Z,939.63
2023-03-26T01:56:28.536Z,939.67
2023-03-26T01:56:39.585Z,939.67
2023-03-26T01:56:50.618Z,939.66
2023-03-26T01:57:02.620Z,939.68
2023-03-26T01:57:14.632Z,939.68
2023-03-26T01:57:25.565Z,939.70
2023-03-26T01:57:36.548Z,939.70
2023-03-26T01:57:47.569Z,939.68
2023-03-26T01:57:58.579Z,939.69
2023-03-26T01:58:10.595Z,939.68
2023-03-26T01:58:22.560Z,939.68
2023-03-26T01:58:33.564Z,939.65
2023-03-26T01:58:44.545Z,939.65
2023-03-26T01:58:55.564Z,939.64
2023-03-26T01:59:06.567Z,939.63
2023-03-26T01:59:17.564Z,939.63
2023-03-26T01:59:28.564Z,939.65
2023-03-26T01:59:39.545Z,939.68
2023-03-26T01:59:50.574Z,939.69
2023-03-26T02:00:01.592Z,939.68
2023-03-26T02:00:12.579Z,939.70
2023-03-26T02:00:23.584Z,939.69
2023-03-26T02:00:34.581Z,939.70
2023-03-26T02:00:45.585Z,939.73
2023-03-26T02:00:56.580Z,939.71
2023-03-26T02:01:07.555Z,939.69
2023-03-26T02:01:18.581Z,939.70
2023-03-26T02:01:29.627Z,939.72
2023-03-26T02:01:41.676Z,939.72
2023-03-26T02:01:52.583Z,939.74
2023-03-26T02:02:03.626Z,939.72
2023-03-26T02:02:14.587Z,939.71
2023-03-26T02:02:25.681Z,939.69
2023-03-26T02:02:36.658Z,939.69
2023-03-26T02:02:47.760Z,939.71
2023-03-26T02:02:59.738Z,939.73
2023-03-26T02:03:11.656Z,939.76
2023-03-26T02:03:23.708Z,939.77
2023-03-26T02:03:34.559Z,939.75
2023-03-26T02:03:45.571Z,939.73
2023-03-26T02:03:57.565Z,939.71
2023-03-26T02:04:08.565Z,939.72
2023-03-26T02:04:19.559Z,939.74
2023-03-26T02:04:30.585Z,939.75
2023-03-26T02:04:41.577Z,939.74
2023-03-26T02:04:52.574Z,939.74
2023-03-26T02:05:03.601Z,939.74
2023-03-26T02:05:14.589Z,939.73
2023-03-26T02:05:25.570Z,939.70
2023-03-26T02:05:36.551Z,939.71
2023-03-26T02:05:48.579Z,939.75
2023-03-26T02:05:59.559Z,939.79
2023-03-26T02:06:10.636Z,939.78
2023-03-26T02:06:22.594Z,939.76
2023-03-26T02:06:34.560Z,939.72
2023-03-26T02:06:45.545Z,939.71
2023-03-26T02:06:56.640Z,939.71
2023-03-26T02:07:08.583Z,939.73
2023-03-26T02:07:19.563Z,939.74
2023-03-26T02:07:30.551Z,939.71
2023-03-26T02:07:41.630Z,939.71
2023-03-26T02:07:53.608Z,939.72
2023-03-26T02:08:04.594Z,939.72
2023-03-26T02:08:15.574Z,939.73
2023-03-26T02:08:26.562Z,939.71
2023-03-26T02:08:37.594Z,939.71
2023-03-26T02:08:48.653Z,939.69
2023-03-26T02:09:00.620Z,939.70
2023-03-26T02:09:12.577Z,939.70
2023-03-26T02:09:23.558Z,939.69
2023-03-26T02:09:34.548Z,939.68
2023-03-26T02:09:45.632Z,939.68
2023-03-26T02:09:57.598Z,939.67
2023-03-26T02:10:08.588Z,939.67
2023-03-26T02:10:19.580Z,939.66
2023-03-26T02:10:30.572Z,939.63
2023-03-26T02:10:41.610Z,939.61
2023-03-26T02:10:53.565Z,939.63
2023-03-26T02:11:04.555Z,939.63
2023-03-26T02:11:16.641Z,939.64
2023-03-26T02:11:34.682Z,939.66
2023-03-26T02:11:38.574Z,939.66
2023-03-26T02:11:49.576Z,939.66
2023-03-26T02:12:00.577Z,939.67
2023-03-26T02:12:11.559Z,939.68
2023-03-26T02:12:22.569Z,939.68
2023-03-26T02:12:33.566Z,939.68
2023-03-26T02:12:44.565Z,939.69
2023-03-26T02:12:55.543Z,939.68
2023-03-26T02:13:06.647Z,939.64
2023-03-26T02:13:18.614Z,939.62
2023-03-26T02:13:30.569Z,939.60
2023-03-26T02:13:41.545Z,939.62
2023-03-26T02:13:52.551Z,939.65
2023-03-26T02:14:03.541Z,939.67
2023-03-26T02:14:14.609Z,939.64
2023-03-26T02:14:26.565Z,939.65
2023-03-26T02:14:37.544Z,939.64
2023-03-26T02:14:48.533Z,939.63
2023-03-26T02:14:59.536Z,939.64
2023-03-26T02:15:10.631Z,939.66
2023-03-26T02:15:22.600Z,939.68
2023-03-26T02:15:33.586Z,939.66
2023-03-26T02:15:44.555Z,939.66
2023-03-26T02:15:55.706Z,939.67
2023-03-26T02:16:06.628Z,939.67
2023-03-26T02:16:18.609Z,939.69
2023-03-26T02:16:30.642Z,939.68
2023-03-26T02:16:42.646Z,939.69
2023-03-26T02:16:54.626Z,939.68
2023-03-26T02:17:06.594Z,939.68
2023-03-26T02:17:17.583Z,939.67
2023-03-26T02:17:28.599Z,939.64
2023-03-26T02:17:40.756Z,939.65
2023-03-26T02:17:51.554Z,939.66
2023-03-26T02:18:02.573Z,939.66
2023-03-26T02:18:13.592Z,939.66
2023-03-26T02:18:24.567Z,939.69
2023-03-26T02:18:35.541Z,939.69
2023-03-26T02:18:46.622Z,939.68
2023-03-26T02:18:58.563Z,939.69
2023-03-26T02:19:09.550Z,939.69
2023-03-26T02:19:20.544Z,939.67
2023-03-26T02:19:31.618Z,939.65
2023-03-26T02:19:43.581Z,939.62
2023-03-26T02:19:54.569Z,939.63